createdAt,value
2018-09-21T00:01:59.675Z,18.80
2018-09-21T00:04:27.904Z,18.70
2018-09-21T00:06:56.171Z,18.70
2018-09-21T00:09:24.459Z,18.70
2018-09-21T00:11:52.686Z,18.70
2018-09-21T00:14:20.931Z,18.60
2018-09-21T00:16:49.171Z,18.60
2018-09-21T00:19:17.427Z,18.60
2018-09-21T00:21:45.651Z,18.60
2018-09-21T00:24:13.903Z,18.60
2018-09-21T00:26:42.139Z,18.60
2018-09-21T00:29:10.363Z,18.60
2018-09-21T00:31:38.627Z,18.60
2018-09-21T00:34:06.842Z,18.60
2018-09-21T00:36:35.100Z,18.60
2018-09-21T00:39:03.718Z,18.60
2018-09-21T00:41:31.960Z,18.60
2018-09-21T00:44:00.220Z,18.60
2018-09-21T00:46:28.479Z,18.60
2018-09-21T00:48:56.723Z,18.60
2018-09-21T00:51:24.956Z,18.60
2018-09-21T00:53:53.208Z,18.60
2018-09-21T00:56:21.459Z,18.60
2018-09-21T00:58:49.687Z,18.60
2018-09-21T01:01:17.956Z,18.70
2018-09-21T01:03:46.191Z,18.70
2018-09-21T01:06:14.465Z,18.70
2018-09-21T01:08:42.687Z,18.70
2018-09-21T01:11:10.945Z,18.70
2018-09-21T01:13:39.181Z,18.70
2018-09-21T01:16:07.462Z,18.70
2018-09-21T01:18:35.679Z,18.70
2018-09-21T01:21:03.908Z,18.80
2018-09-21T01:23:32.168Z,18.80
2018-09-21T01:26:00.435Z,18.80
2018-09-21T01:28:28.696Z,18.80
2018-09-21T01:30:56.955Z,18.80
2018-09-21T01:33:25.235Z,18.80
2018-09-21T01:35:53.462Z,18.90
2018-09-21T01:38:21.694Z,18.90
2018-09-21T01:40:49.928Z,18.90
2018-09-21T01:43:18.184Z,19.00
2018-09-21T01:45:46.480Z,19.00
2018-09-21T01:48:14.746Z,19.00
2018-09-21T01:50:43.084Z,19.00
2018-09-21T01:53:11.358Z,19.10
2018-09-21T01:55:39.612Z,19.10
2018-09-21T01:58:07.934Z,19.20
2018-09-21T02:00:36.191Z,19.20
2018-09-21T02:03:04.475Z,19.20
2018-09-21T02:05:32.719Z,19.30
2018-09-21T02:08:00.973Z,19.30
2018-09-21T02:10:29.195Z,19.30
2018-09-21T02:12:57.433Z,19.30
2018-09-21T02:15:25.775Z,19.30
2018-09-21T02:17:54.028Z,19.20
2018-09-21T02:20:22.255Z,19.20
2018-09-21T02:22:50.891Z,19.20
2018-09-21T02:25:19.154Z,19.20
2018-09-21T02:27:47.421Z,19.20
2018-09-21T02:30:15.680Z,19.20
2018-09-21T02:32:43.917Z,19.20
2018-09-21T02:35:12.143Z,19.20
2018-09-21T02:37:40.388Z,19.20
2018-09-21T02:40:08.928Z,19.20
2018-09-21T02:42:37.246Z,19.20
2018-09-21T02:45:06.116Z,19.30
2018-09-21T02:47:34.342Z,19.30
2018-09-21T02:50:02.766Z,19.20
2018-09-21T02:52:31.156Z,19.30
2018-09-21T02:54:59.395Z,19.30
2018-09-21T02:57:27.624Z,19.30
2018-09-21T02:59:55.872Z,19.30
2018-09-21T03:02:24.121Z,19.30
2018-09-21T03:04:56.055Z,19.40
2018-09-21T03:07:25.148Z,19.40
2018-09-21T03:09:53.635Z,19.40
2018-09-21T03:12:21.874Z,19.40
2018-09-21T03:14:50.228Z,19.40
2018-09-21T03:17:18.518Z,19.40
2018-09-21T03:19:46.859Z,19.50
2018-09-21T03:22:15.095Z,19.50
2018-09-21T03:24:43.386Z,19.50
2018-09-21T03:27:11.632Z,19.50
2018-09-21T03:29:39.979Z,19.60
2018-09-21T03:32:08.211Z,19.60
2018-09-21T03:34:36.439Z,19.60
2018-09-21T03:37:04.691Z,19.60
2018-09-21T03:39:32.960Z,19.60
2018-09-21T03:42:01.224Z,19.60
2018-09-21T03:44:29.443Z,19.70
2018-09-21T03:46:57.707Z,19.70
2018-09-21T03:49:25.927Z,19.70
2018-09-21T03:51:54.160Z,19.80
2018-09-21T03:54:22.538Z,19.80
2018-09-21T03:56:50.820Z,19.80
2018-09-21T03:59:19.053Z,19.80
2018-09-21T04:01:47.308Z,19.90
2018-09-21T04:04:15.540Z,19.80
2018-09-21T04:06:43.788Z,19.80
2018-09-21T04:09:12.059Z,19.80
2018-09-21T04:11:40.352Z,19.80
2018-09-21T04:14:08.583Z,19.80
2018-09-21T04:16:36.848Z,19.90
2018-09-21T04:19:05.115Z,19.90
2018-09-21T04:21:33.366Z,19.90
2018-09-21T04:24:01.613Z,19.90
2018-09-21T04:26:29.852Z,19.90
2018-09-21T04:28:58.081Z,19.90
2018-09-21T04:31:26.319Z,19.90
2018-09-21T04:33:54.609Z,20.00
2018-09-21T04:36:22.849Z,20.00
2018-09-21T04:38:51.096Z,20.00
2018-09-21T04:41:19.343Z,20.00
2018-09-21T04:43:47.818Z,20.10
2018-09-21T04:46:16.064Z,20.10
2018-09-21T04:48:44.307Z,20.10
2018-09-21T04:51:12.551Z,20.10
2018-09-21T04:53:40.811Z,20.10
2018-09-21T04:56:09.264Z,20.10
2018-09-21T04:58:37.511Z,20.10
2018-09-21T05:01:05.776Z,20.10
2018-09-21T05:03:34.039Z,20.10
2018-09-21T05:06:02.271Z,20.00
2018-09-21T05:08:30.504Z,20.10
2018-09-21T05:10:59.073Z,20.10
2018-09-21T05:13:27.323Z,20.20
2018-09-21T05:15:55.542Z,20.20
2018-09-21T05:18:23.780Z,20.20
2018-09-21T05:20:52.012Z,20.20
2018-09-21T05:23:20.238Z,20.30
2018-09-21T05:25:48.457Z,20.30
2018-09-21T05:28:16.696Z,20.30
2018-09-21T05:30:44.941Z,20.40
2018-09-21T05:33:13.206Z,20.40
2018-09-21T05:35:41.463Z,20.40
2018-09-21T05:38:09.705Z,20.40
2018-09-21T05:40:37.961Z,20.40
2018-09-21T05:43:06.426Z,20.40
2018-09-21T05:45:34.658Z,20.50
2018-09-21T05:48:02.895Z,20.50
2018-09-21T05:50:31.142Z,20.50
2018-09-21T05:52:59.365Z,20.60
2018-09-21T05:55:27.582Z,20.60
2018-09-21T05:57:55.808Z,20.70
2018-09-21T06:00:24.047Z,20.70
2018-09-21T06:02:52.336Z,20.70
2018-09-21T06:05:20.555Z,20.70
2018-09-21T06:07:48.838Z,20.80
2018-09-21T06:10:17.032Z,20.80
2018-09-21T06:12:45.267Z,20.90
2018-09-21T06:15:13.561Z,20.90
2018-09-21T06:17:41.811Z,21.00
2018-09-21T06:20:12.846Z,21.00
2018-09-21T06:22:45.035Z,21.00
2018-09-21T06:25:07.187Z,21.10
2018-09-21T06:27:35.468Z,21.10
2018-09-21T06:30:03.799Z,21.20
2018-09-21T06:32:32.071Z,21.20
2018-09-21T06:35:00.347Z,21.20
2018-09-21T06:37:28.616Z,21.30
2018-09-21T06:39:56.893Z,21.30
2018-09-21T06:42:25.119Z,21.40
2018-09-21T06:44:53.378Z,21.50
2018-09-21T06:47:21.660Z,21.60
2018-09-21T06:49:49.885Z,21.60
2018-09-21T06:52:18.163Z,21.70
2018-09-21T06:54:46.404Z,21.80
2018-09-21T06:57:14.681Z,21.80
2018-09-21T06:59:42.932Z,21.90
2018-09-21T07:02:11.215Z,21.90
2018-09-21T07:04:39.463Z,22.00
2018-09-21T07:07:07.704Z,22.10
2018-09-21T07:09:35.962Z,22.20
2018-09-21T07:12:04.248Z,22.30
2018-09-21T07:14:32.471Z,22.40
2018-09-21T07:17:00.727Z,22.50
2018-09-21T07:19:29.068Z,22.50
2018-09-21T07:21:57.287Z,22.60
2018-09-21T07:24:25.519Z,22.60
2018-09-21T07:26:53.751Z,22.60
2018-09-21T07:29:22.264Z,22.60
2018-09-21T07:31:50.536Z,22.60
2018-09-21T07:34:18.787Z,22.60
2018-09-21T07:36:47.080Z,22.60
2018-09-21T07:39:15.323Z,22.60
2018-09-21T07:41:43.575Z,22.70
2018-09-21T07:44:11.842Z,22.70
2018-09-21T07:46:40.103Z,22.70
2018-09-21T07:49:08.333Z,22.70
2018-09-21T07:51:36.584Z,22.70
2018-09-21T07:54:04.819Z,22.80
2018-09-21T07:56:33.064Z,22.90
2018-09-21T07:59:01.290Z,22.90
2018-09-21T08:01:29.554Z,23.00
2018-09-21T08:03:57.780Z,23.00
2018-09-21T08:06:26.023Z,23.00
2018-09-21T08:08:54.266Z,23.00
2018-09-21T08:11:22.540Z,23.00
2018-09-21T08:13:50.751Z,23.10
2018-09-21T08:16:18.984Z,23.00
2018-09-21T08:18:47.409Z,22.90
2018-09-21T08:21:15.672Z,22.80
2018-09-21T08:23:43.916Z,22.80
2018-09-21T08:26:12.220Z,22.60
2018-09-21T08:28:40.468Z,22.50
2018-09-21T08:31:08.689Z,22.50
2018-09-21T08:33:36.949Z,22.50
2018-09-21T08:36:05.179Z,22.50
2018-09-21T08:38:33.424Z,22.60
2018-09-21T08:41:01.829Z,22.70
2018-09-21T08:43:30.120Z,22.80
2018-09-21T08:45:58.386Z,22.90
2018-09-21T08:48:26.627Z,22.90
2018-09-21T08:50:54.904Z,22.80
2018-09-21T08:53:23.164Z,22.60
2018-09-21T08:55:51.463Z,22.30
2018-09-21T08:58:19.708Z,22.00
2018-09-21T09:00:47.978Z,21.80
2018-09-21T09:03:16.351Z,21.40
2018-09-21T09:05:48.716Z,21.20
2018-09-21T09:08:16.962Z,21.10
2018-09-21T09:10:45.195Z,20.90
2018-09-21T09:13:13.443Z,20.80
2018-09-21T09:15:41.746Z,20.70
2018-09-21T09:18:10.067Z,20.60
2018-09-21T09:20:38.334Z,20.70
2018-09-21T09:23:07.318Z,20.70
2018-09-21T09:25:35.585Z,20.80
2018-09-21T09:28:03.866Z,21.00
2018-09-21T09:30:32.132Z,21.00
2018-09-21T09:33:00.428Z,21.20
2018-09-21T09:35:28.679Z,21.20
2018-09-21T09:37:56.907Z,21.20
2018-09-21T09:40:25.131Z,21.20
2018-09-21T09:42:53.405Z,21.20
2018-09-21T09:45:21.640Z,21.20
2018-09-21T09:47:50.015Z,21.10
2018-09-21T09:50:18.271Z,21.00
2018-09-21T09:52:46.509Z,20.70
2018-09-21T09:55:14.731Z,20.40
2018-09-21T09:57:42.975Z,20.00
2018-09-21T10:00:11.204Z,19.80
2018-09-21T10:02:39.487Z,19.60
2018-09-21T10:05:07.753Z,19.50
2018-09-21T10:07:35.990Z,19.90
2018-09-21T10:10:04.307Z,19.90
2018-09-21T10:12:32.556Z,19.80
2018-09-21T10:15:00.799Z,19.70
2018-09-21T10:17:29.068Z,19.50
2018-09-21T10:19:57.363Z,19.50
2018-09-21T10:22:25.630Z,19.40
2018-09-21T10:24:53.875Z,19.30
2018-09-21T10:27:22.179Z,19.10
2018-09-21T10:29:50.501Z,19.00
2018-09-21T10:32:18.851Z,19.20
2018-09-21T10:34:48.211Z,19.20
2018-09-21T10:37:16.495Z,19.20
2018-09-21T10:39:44.734Z,19.20
2018-09-21T10:42:13.022Z,18.90
2018-09-21T10:44:41.308Z,18.60
2018-09-21T10:47:09.611Z,18.50
2018-09-21T10:49:37.855Z,18.70
2018-09-21T10:52:06.249Z,19.00
2018-09-21T10:54:34.512Z,19.10
2018-09-21T10:57:02.783Z,19.00
2018-09-21T10:59:31.026Z,18.90
2018-09-21T11:01:59.258Z,18.70
2018-09-21T11:04:27.762Z,18.40
2018-09-21T11:06:56.014Z,18.20
2018-09-21T11:09:24.259Z,18.00
2018-09-21T11:11:52.531Z,17.80
2018-09-21T11:14:24.723Z,17.60
2018-09-21T11:16:53.067Z,17.40
2018-09-21T11:19:21.329Z,17.40
2018-09-21T11:21:49.624Z,17.30
2018-09-21T11:24:17.883Z,17.30
2018-09-21T11:26:46.163Z,17.20
2018-09-21T11:29:14.392Z,17.20
2018-09-21T11:31:42.631Z,17.10
2018-09-21T11:34:10.902Z,17.10
2018-09-21T11:36:39.163Z,17.00
2018-09-21T11:39:08.923Z,16.90
2018-09-21T11:41:37.179Z,16.90
2018-09-21T11:44:05.448Z,16.80
2018-09-21T11:46:33.732Z,16.70
2018-09-21T11:49:02.000Z,16.60
2018-09-21T11:51:30.227Z,16.60
2018-09-21T11:53:58.466Z,16.50
2018-09-21T11:56:26.707Z,16.50
2018-09-21T11:58:54.955Z,16.40
2018-09-21T12:01:23.227Z,16.30
2018-09-21T12:03:51.499Z,16.20
2018-09-21T12:06:19.787Z,16.40
2018-09-21T12:08:48.212Z,16.40
2018-09-21T12:11:16.488Z,16.50
2018-09-21T12:13:44.764Z,16.70
2018-09-21T12:16:13.003Z,16.90
2018-09-21T12:18:41.268Z,17.00
2018-09-21T12:21:09.515Z,17.00
2018-09-21T12:23:37.751Z,17.10
2018-09-21T12:26:06.131Z,17.20
2018-09-21T12:28:34.366Z,17.30
2018-09-21T12:31:02.595Z,17.40
2018-09-21T12:33:30.868Z,17.50
2018-09-21T12:35:59.147Z,17.50
2018-09-21T12:38:27.417Z,17.60
2018-09-21T12:40:55.711Z,17.60
2018-09-21T12:43:23.950Z,17.70
2018-09-21T12:45:52.200Z,17.80
2018-09-21T12:48:20.459Z,17.70
2018-09-21T12:50:48.745Z,17.70
2018-09-21T12:53:16.958Z,17.70
2018-09-21T12:55:45.195Z,17.60
2018-09-21T12:58:13.505Z,17.60
2018-09-21T13:00:47.068Z,17.60
2018-09-21T13:03:15.332Z,17.70
2018-09-21T13:05:43.564Z,17.60
2018-09-21T13:08:11.833Z,17.60
2018-09-21T13:10:40.104Z,17.60
2018-09-21T13:13:08.348Z,17.60
2018-09-21T13:15:36.598Z,17.60
2018-09-21T13:18:04.828Z,17.60
2018-09-21T13:20:33.080Z,17.50
2018-09-21T13:23:01.295Z,17.50
2018-09-21T13:25:29.534Z,17.40
2018-09-21T13:27:57.783Z,17.40
2018-09-21T13:30:26.024Z,17.40
2018-09-21T13:32:54.268Z,17.50
2018-09-21T13:35:22.521Z,17.40
2018-09-21T13:37:50.751Z,17.50
2018-09-21T13:40:19.003Z,17.60
2018-09-21T13:42:47.264Z,17.70
2018-09-21T13:45:15.500Z,17.70
2018-09-21T13:47:43.727Z,17.70
2018-09-21T13:50:11.960Z,17.60
2018-09-21T13:52:40.201Z,17.60
2018-09-21T13:55:08.435Z,17.60
2018-09-21T13:57:36.671Z,17.60
2018-09-21T14:00:05.061Z,17.60
2018-09-21T14:02:33.283Z,17.60
2018-09-21T14:05:01.524Z,17.60
2018-09-21T14:07:29.764Z,17.60
2018-09-21T14:09:57.999Z,17.60
2018-09-21T14:12:26.234Z,17.60
2018-09-21T14:14:54.505Z,17.70
2018-09-21T14:17:22.755Z,17.70
2018-09-21T14:19:51.004Z,17.60
2018-09-21T14:22:19.223Z,17.50
2018-09-21T14:24:47.494Z,17.40
2018-09-21T14:27:15.728Z,17.40
2018-09-21T14:29:43.991Z,17.40
2018-09-21T14:32:12.251Z,17.50
2018-09-21T14:34:40.630Z,17.50
2018-09-21T14:37:08.939Z,17.70
2018-09-21T14:39:37.186Z,17.80
2018-09-21T14:42:05.440Z,17.80
2018-09-21T14:44:33.681Z,17.90
2018-09-21T14:47:01.927Z,17.90
2018-09-21T14:49:30.205Z,17.80
2018-09-21T14:51:58.479Z,17.80
2018-09-21T14:54:26.719Z,17.80
2018-09-21T14:56:54.985Z,17.70
2018-09-21T14:59:23.205Z,17.70
2018-09-21T15:01:51.427Z,17.50
2018-09-21T15:04:19.656Z,17.50
2018-09-21T15:06:47.900Z,17.50
2018-09-21T15:09:16.172Z,17.50
2018-09-21T15:11:44.395Z,17.40
2018-09-21T15:14:12.661Z,17.40
2018-09-21T15:16:40.888Z,17.30
2018-09-21T15:19:09.572Z,17.30
2018-09-21T15:21:37.958Z,17.30
2018-09-21T15:24:06.199Z,17.30
2018-09-21T15:26:34.450Z,17.20
2018-09-21T15:29:02.699Z,17.10
2018-09-21T15:31:30.980Z,17.10
2018-09-21T15:33:59.208Z,17.10
2018-09-21T15:36:27.452Z,17.10
2018-09-21T15:38:55.676Z,17.10
2018-09-21T15:41:23.912Z,17.10
2018-09-21T15:43:52.151Z,17.10
2018-09-21T15:46:20.387Z,17.10
2018-09-21T15:48:48.975Z,17.00
2018-09-21T15:51:17.251Z,17.00
2018-09-21T15:53:45.507Z,16.90
2018-09-21T15:56:13.739Z,17.00
2018-09-21T15:58:42.005Z,17.00
2018-09-21T16:01:10.283Z,17.00
2018-09-21T16:03:38.535Z,16.90
2018-09-21T16:06:06.859Z,16.90
2018-09-21T16:08:35.054Z,16.80
2018-09-21T16:11:03.323Z,16.80
2018-09-21T16:13:31.595Z,16.70
2018-09-21T16:15:59.851Z,16.70
2018-09-21T16:18:28.108Z,16.70
2018-09-21T16:20:56.342Z,16.60
2018-09-21T16:23:24.605Z,16.60
2018-09-21T16:25:52.827Z,16.60
2018-09-21T16:28:21.100Z,16.50
2018-09-21T16:30:49.435Z,16.50
2018-09-21T16:33:17.705Z,16.40
2018-09-21T16:35:45.947Z,16.40
2018-09-21T16:38:14.207Z,16.30
2018-09-21T16:40:42.463Z,16.20
2018-09-21T16:43:10.739Z,16.20
2018-09-21T16:45:39.016Z,16.20
2018-09-21T16:48:07.264Z,16.10
2018-09-21T16:50:35.540Z,17.40
2018-09-21T16:53:03.807Z,18.00
2018-09-21T16:55:32.049Z,18.60
2018-09-21T16:58:00.325Z,18.90
2018-09-21T17:00:28.588Z,19.20
2018-09-21T17:02:56.840Z,19.30
2018-09-21T17:05:25.088Z,19.40
2018-09-21T17:07:53.319Z,19.10
2018-09-21T17:10:21.592Z,18.50
2018-09-21T17:12:49.826Z,17.90
2018-09-21T17:15:18.068Z,17.30
2018-09-21T17:17:46.320Z,17.00
2018-09-21T17:20:14.600Z,16.70
2018-09-21T17:22:42.791Z,16.40
2018-09-21T17:25:11.056Z,16.20
2018-09-21T17:27:39.311Z,16.10
2018-09-21T17:30:07.570Z,16.00
2018-09-21T17:32:35.917Z,15.70
2018-09-21T17:35:04.344Z,15.50
2018-09-21T17:37:32.621Z,15.20
2018-09-21T17:40:00.865Z,14.90
2018-09-21T17:42:29.111Z,14.80
2018-09-21T17:44:57.379Z,14.70
2018-09-21T17:47:25.636Z,14.60
2018-09-21T17:49:53.896Z,14.60
2018-09-21T17:52:22.119Z,14.50
2018-09-21T17:54:50.350Z,14.50
2018-09-21T17:57:18.600Z,14.50
2018-09-21T17:59:46.818Z,14.40
2018-09-21T18:02:15.213Z,14.40
2018-09-21T18:04:43.451Z,14.40
2018-09-21T18:07:15.976Z,14.30
2018-09-21T18:09:44.218Z,14.20
2018-09-21T18:12:12.451Z,14.20
2018-09-21T18:14:40.683Z,14.10
2018-09-21T18:17:08.930Z,14.20
2018-09-21T18:19:37.155Z,14.10
2018-09-21T18:22:05.403Z,14.00
2018-09-21T18:24:33.645Z,13.90
2018-09-21T18:27:01.887Z,13.80
2018-09-21T18:29:30.171Z,13.50
2018-09-21T18:31:58.395Z,13.30
2018-09-21T18:34:26.623Z,13.10
2018-09-21T18:36:54.911Z,12.90
2018-09-21T18:39:23.177Z,12.80
2018-09-21T18:41:51.440Z,12.70
2018-09-21T18:44:19.710Z,12.50
2018-09-21T18:46:48.323Z,12.40
2018-09-21T18:49:16.571Z,12.20
2018-09-21T18:51:44.827Z,12.10
2018-09-21T18:54:13.175Z,11.90
2018-09-21T18:56:41.419Z,11.90
2018-09-21T18:59:09.659Z,11.80
2018-09-21T19:01:38.035Z,11.70
2018-09-21T19:04:06.269Z,11.70
2018-09-21T19:06:34.547Z,11.60
2018-09-21T19:09:02.855Z,11.40
2018-09-21T19:11:31.092Z,11.40
2018-09-21T19:13:59.323Z,11.20
2018-09-21T19:16:27.562Z,11.20
2018-09-21T19:18:55.822Z,11.10
2018-09-21T19:21:24.044Z,10.90
2018-09-21T19:23:52.323Z,10.70
2018-09-21T19:26:20.600Z,10.70
2018-09-21T19:28:48.817Z,10.60
2018-09-21T19:31:17.026Z,10.60
2018-09-21T19:33:45.268Z,10.50
2018-09-21T19:36:13.537Z,10.50
2018-09-21T19:38:41.896Z,10.60
2018-09-21T19:41:10.083Z,10.60
2018-09-21T19:43:38.357Z,10.50
2018-09-21T19:46:06.623Z,10.40
2018-09-21T19:48:34.856Z,10.40
2018-09-21T19:51:03.243Z,10.30
2018-09-21T19:53:31.495Z,10.30
2018-09-21T19:55:59.847Z,10.20
2018-09-21T19:58:28.092Z,10.20
2018-09-21T20:00:56.388Z,10.10
2018-09-21T20:03:24.769Z,10.10
2018-09-21T20:05:53.014Z,10.10
2018-09-21T20:08:21.409Z,10.20
2018-09-21T20:10:49.723Z,10.10
2018-09-21T20:13:17.987Z,10.10
2018-09-21T20:15:46.211Z,10.10
2018-09-21T20:18:14.444Z,10.20
2018-09-21T20:20:42.851Z,10.10
2018-09-21T20:23:11.103Z,10.10
2018-09-21T20:25:39.354Z,10.10
2018-09-21T20:28:07.575Z,10.10
2018-09-21T20:30:41.305Z,10.00
2018-09-21T20:33:14.938Z,10.00
2018-09-21T20:35:43.287Z,10.10
2018-09-21T20:38:11.597Z,10.10
2018-09-21T20:40:39.776Z,10.10
2018-09-21T20:43:08.061Z,10.20
2018-09-21T20:45:36.303Z,10.20
2018-09-21T20:48:04.566Z,10.20
2018-09-21T20:50:32.795Z,10.10
2018-09-21T20:53:01.050Z,10.20
2018-09-21T20:55:29.300Z,10.20
2018-09-21T20:57:57.537Z,10.30
2018-09-21T21:00:25.819Z,10.30
2018-09-21T21:02:54.052Z,10.30
2018-09-21T21:05:22.359Z,10.30
2018-09-21T21:07:50.564Z,10.30
2018-09-21T21:10:18.847Z,10.30
2018-09-21T21:12:47.084Z,10.40
2018-09-21T21:15:15.339Z,10.50
2018-09-21T21:17:43.581Z,10.50
2018-09-21T21:20:11.834Z,10.50
2018-09-21T21:22:40.078Z,10.60
2018-09-21T21:25:08.297Z,10.60
2018-09-21T21:27:36.572Z,10.60
2018-09-21T21:30:04.806Z,10.70
2018-09-21T21:32:33.031Z,10.70
2018-09-21T21:35:01.560Z,10.70
2018-09-21T21:37:29.783Z,10.70
2018-09-21T21:39:58.047Z,10.70
2018-09-21T21:42:26.402Z,10.70
2018-09-21T21:44:54.640Z,10.70
2018-09-21T21:47:22.863Z,10.70
2018-09-21T21:49:51.088Z,10.80
2018-09-21T21:52:19.324Z,10.80
2018-09-21T21:54:47.576Z,10.90
2018-09-21T21:57:15.791Z,10.90
2018-09-21T21:59:44.891Z,10.90
2018-09-21T22:02:13.575Z,10.90
2018-09-21T22:04:42.366Z,10.90
2018-09-21T22:07:11.569Z,10.90
2018-09-21T22:09:40.719Z,11.00
2018-09-21T22:12:14.300Z,11.00
2018-09-21T22:14:42.527Z,11.00
2018-09-21T22:17:10.755Z,11.10
2018-09-21T22:19:39.036Z,11.00
2018-09-21T22:22:07.323Z,11.10
2018-09-21T22:24:35.567Z,11.10
2018-09-21T22:27:03.812Z,11.10
2018-09-21T22:29:32.051Z,11.10
2018-09-21T22:32:00.316Z,11.10
2018-09-21T22:34:28.538Z,11.20
2018-09-21T22:36:56.763Z,11.20
2018-09-21T22:39:25.024Z,11.20
2018-09-21T22:41:53.288Z,11.10
2018-09-21T22:44:21.523Z,11.10
2018-09-21T22:46:49.741Z,11.10
2018-09-21T22:49:21.034Z,11.10
2018-09-21T22:51:49.271Z,11.10
2018-09-21T22:54:17.527Z,11.10
2018-09-21T22:56:45.767Z,11.10
2018-09-21T22:59:14.009Z,11.10
2018-09-21T23:01:42.243Z,11.10
2018-09-21T23:04:10.480Z,11.10
2018-09-21T23:06:38.708Z,11.10
2018-09-21T23:09:09.434Z,11.10
2018-09-21T23:11:37.819Z,11.10
2018-09-21T23:14:06.061Z,11.10
2018-09-21T23:16:34.278Z,11.20
2018-09-21T23:19:02.519Z,11.20
2018-09-21T23:21:30.769Z,11.20
2018-09-21T23:23:58.992Z,11.20
2018-09-21T23:26:27.225Z,11.20
2018-09-21T23:28:55.455Z,11.20
2018-09-21T23:31:23.757Z,11.20
2018-09-21T23:33:52.003Z,11.20
2018-09-21T23:36:20.509Z,11.20
2018-09-21T23:38:48.910Z,11.20
2018-09-21T23:41:17.175Z,11.20
2018-09-21T23:43:45.553Z,11.10
2018-09-21T23:46:13.855Z,11.10
2018-09-21T23:48:42.083Z,11.00
2018-09-21T23:51:11.124Z,11.00
2018-09-21T23:53:39.503Z,11.00
2018-09-21T23:56:08.181Z,11.00
2018-09-21T23:58:36.439Z,10.90
